createdAt,value
2022-08-03T00:00:07.165Z,2.40
2022-08-03T00:02:41.368Z,2.45
2022-08-03T00:05:08.966Z,2.58
2022-08-03T00:07:36.162Z,2.67
2022-08-03T00:10:03.503Z,2.78
2022-08-03T00:12:30.714Z,2.50
2022-08-03T00:15:00.854Z,2.80
2022-08-03T00:17:28.132Z,2.25
2022-08-03T00:19:55.363Z,2.35
2022-08-03T00:22:22.736Z,2.60
2022-08-03T00:24:51.180Z,2.42
2022-08-03T00:27:18.420Z,2.40
2022-08-03T00:29:59.632Z,2.38
2022-08-03T00:32:27.630Z,2.75
2022-08-03T00:34:57.753Z,2.70
2022-08-03T00:37:40.695Z,2.50
2022-08-03T00:40:13.391Z,2.50
2022-08-03T00:43:07.736Z,2.30
2022-08-03T00:45:39.956Z,2.88
2022-08-03T00:48:32.903Z,2.17
2022-08-03T00:50:58.438Z,2.88
2022-08-03T00:53:26.429Z,2.45
2022-08-03T00:55:53.688Z,2.42
2022-08-03T00:58:21.302Z,2.05
2022-08-03T01:00:48.739Z,2.08
2022-08-03T01:03:16.215Z,2.97
2022-08-03T01:05:55.669Z,2.10
2022-08-03T01:08:39.705Z,2.22
2022-08-03T01:11:24.923Z,2.33
2022-08-03T01:14:18.998Z,2.55
2022-08-03T01:17:05.595Z,2.67
2022-08-03T01:19:45.877Z,2.83
2022-08-03T01:22:40.480Z,2.70
2022-08-03T01:25:24.262Z,2.78
2022-08-03T01:27:57.559Z,2.45
2022-08-03T01:30:31.312Z,2.95
2022-08-03T01:33:06.599Z,2.60
2022-08-03T01:35:45.512Z,2.83
2022-08-03T01:38:18.474Z,3.15
2022-08-03T01:40:48.107Z,2.83
2022-08-03T01:43:55.138Z,2.40
2022-08-03T01:46:09.217Z,2.42
2022-08-03T01:48:40.114Z,2.78
2022-08-03T01:51:09.802Z,2.55
2022-08-03T01:53:43.021Z,2.22
2022-08-03T01:58:40.107Z,2.45
2022-08-03T02:01:09.360Z,2.35
2022-08-03T02:03:59.790Z,2.33
2022-08-03T02:07:00.055Z,2.60
2022-08-03T02:09:24.376Z,2.33
2022-08-03T02:14:21.530Z,2.45
2022-08-03T02:16:50.043Z,2.70
2022-08-03T02:19:19.368Z,2.35
2022-08-03T02:21:56.721Z,2.20
2022-08-03T02:24:29.741Z,2.80
2022-08-03T02:26:58.526Z,2.72
2022-08-03T02:29:39.887Z,1.88
2022-08-03T02:32:17.099Z,2.22
2022-08-03T02:34:49.488Z,2.63
2022-08-03T02:37:20.423Z,5.55
2022-08-03T02:39:49.496Z,3.60
2022-08-03T02:42:21.799Z,2.92
2022-08-03T02:44:52.385Z,3.13
2022-08-03T02:47:21.674Z,4.10
2022-08-03T02:49:52.366Z,3.20
2022-08-03T02:52:26.290Z,2.78
2022-08-03T02:54:57.233Z,2.75
2022-08-03T02:57:27.634Z,3.00
2022-08-03T03:00:00.263Z,3.03
2022-08-03T03:02:30.908Z,2.90
2022-08-03T03:05:54.653Z,2.78
2022-08-03T03:07:51.859Z,2.88
2022-08-03T03:10:23.432Z,3.15
2022-08-03T03:12:58.734Z,3.33
2022-08-03T03:15:27.536Z,3.00
2022-08-03T03:17:57.365Z,2.70
2022-08-03T03:20:28.895Z,2.83
2022-08-03T03:23:02.966Z,3.20
2022-08-03T03:25:34.427Z,3.30
2022-08-03T03:28:06.396Z,2.75
2022-08-03T03:30:36.540Z,3.10
2022-08-03T03:33:06.296Z,3.40
2022-08-03T03:35:43.668Z,3.25
2022-08-03T03:38:10.941Z,3.08
2022-08-03T03:40:41.399Z,2.95
2022-08-03T03:43:10.119Z,3.25
2022-08-03T03:45:38.543Z,2.90
2022-08-03T03:48:06.585Z,3.00
2022-08-03T03:50:38.130Z,2.92
2022-08-03T03:53:09.230Z,3.50
2022-08-03T03:56:01.550Z,2.88
2022-08-03T03:58:28.135Z,3.35
2022-08-03T04:01:04.276Z,2.80
2022-08-03T04:03:39.419Z,3.53
2022-08-03T04:06:28.855Z,3.05
2022-08-03T04:09:00.829Z,3.25
2022-08-03T04:11:33.526Z,2.88
2022-08-03T04:14:10.070Z,2.92
2022-08-03T04:16:46.468Z,3.15
2022-08-03T04:19:47.837Z,3.30
2022-08-03T04:22:33.135Z,2.97
2022-08-03T04:25:24.543Z,3.67
2022-08-03T04:28:08.232Z,3.58
2022-08-03T04:31:11.026Z,3.67
2022-08-03T04:33:49.247Z,3.25
2022-08-03T04:36:36.570Z,3.65
2022-08-03T04:39:33.021Z,3.20
2022-08-03T04:42:38.055Z,3.58
2022-08-03T04:45:34.231Z,3.50
2022-08-03T04:48:12.961Z,3.28
2022-08-03T04:50:44.040Z,3.72
2022-08-03T04:53:11.886Z,3.60
2022-08-03T04:55:40.565Z,3.83
2022-08-03T04:58:10.808Z,3.53
2022-08-03T05:00:40.370Z,3.50
2022-08-03T05:03:20.454Z,4.20
2022-08-03T05:06:01.512Z,4.13
2022-08-03T05:08:36.803Z,4.30
2022-08-03T05:11:17.305Z,3.88
2022-08-03T05:13:46.248Z,4.05
2022-08-03T05:16:14.826Z,3.80
2022-08-03T05:18:45.742Z,4.45
2022-08-03T05:21:15.903Z,4.90
2022-08-03T05:23:47.161Z,4.07
2022-08-03T05:26:15.054Z,5.13
2022-08-03T05:28:49.981Z,4.05
2022-08-03T05:31:19.024Z,4.57
2022-08-03T05:33:49.561Z,3.97
2022-08-03T05:36:18.436Z,4.53
2022-08-03T05:38:47.430Z,5.18
2022-08-03T05:41:36.646Z,4.68
2022-08-03T05:44:15.579Z,4.72
2022-08-03T05:46:54.441Z,4.72
2022-08-03T05:49:24.299Z,4.63
2022-08-03T05:52:14.782Z,5.00
2022-08-03T05:55:00.592Z,6.18
2022-08-03T05:57:38.336Z,5.05
2022-08-03T06:00:21.347Z,5.00
2022-08-03T06:05:37.331Z,4.97
2022-08-03T06:08:22.559Z,4.88
2022-08-03T06:11:06.724Z,4.97
2022-08-03T06:13:40.159Z,5.63
2022-08-03T06:16:16.502Z,5.20
2022-08-03T06:19:01.069Z,5.05
2022-08-03T06:21:37.728Z,5.03
2022-08-03T06:24:09.765Z,5.43
2022-08-03T06:26:45.988Z,5.63
2022-08-03T06:29:32.066Z,5.78
2022-08-03T06:32:05.680Z,5.25
2022-08-03T06:34:59.624Z,5.30
2022-08-03T06:37:58.496Z,5.22
2022-08-03T06:40:40.316Z,6.07
2022-08-03T06:43:23.258Z,5.82
2022-08-03T06:46:20.965Z,5.88
2022-08-03T06:49:10.090Z,5.55
2022-08-03T06:52:03.603Z,7.07
2022-08-03T06:54:53.090Z,5.85
2022-08-03T06:57:40.223Z,7.03
2022-08-03T07:00:17.470Z,5.70
2022-08-03T07:02:58.492Z,5.80
2022-08-03T07:05:49.858Z,7.10
2022-08-03T07:08:33.614Z,6.47
2022-08-03T07:11:19.091Z,6.97
2022-08-03T07:14:08.103Z,6.75
2022-08-03T07:16:53.618Z,6.30
2022-08-03T07:19:21.146Z,5.82
2022-08-03T07:22:00.268Z,6.75
2022-08-03T07:25:02.051Z,5.47
2022-08-03T07:27:58.060Z,6.57
2022-08-03T07:30:40.409Z,6.30
2022-08-03T07:33:23.659Z,5.90
2022-08-03T07:36:09.567Z,6.50
2022-08-03T07:38:47.404Z,8.00
2022-08-03T07:41:27.238Z,10.15
2022-08-03T07:44:14.261Z,6.38
2022-08-03T07:47:07.408Z,6.68
2022-08-03T07:49:44.881Z,5.72
2022-08-03T07:52:47.120Z,4.60
2022-08-03T07:55:34.319Z,4.50
2022-08-03T07:58:21.964Z,3.70
2022-08-03T08:01:02.772Z,5.10
2022-08-03T08:03:53.269Z,4.43
2022-08-03T08:06:36.457Z,4.03
2022-08-03T08:09:13.558Z,4.05
2022-08-03T08:11:55.211Z,3.63
2022-08-03T08:14:39.501Z,3.88
2022-08-03T08:17:22.140Z,3.60
2022-08-03T08:19:58.334Z,3.90
2022-08-03T08:22:41.645Z,4.38
2022-08-03T08:25:15.043Z,3.70
2022-08-03T08:28:30.387Z,3.40
2022-08-03T08:31:15.473Z,3.65
2022-08-03T08:34:06.684Z,3.55
2022-08-03T08:37:04.719Z,3.65
2022-08-03T08:40:03.534Z,4.10
2022-08-03T08:42:58.915Z,3.80
2022-08-03T08:45:31.694Z,3.67
2022-08-03T08:48:34.767Z,3.15
2022-08-03T08:51:24.564Z,3.33
2022-08-03T08:54:33.808Z,4.47
2022-08-03T08:57:26.842Z,4.13
2022-08-03T09:00:15.373Z,4.90
2022-08-03T09:02:50.231Z,3.60
2022-08-03T09:05:41.572Z,3.80
2022-08-03T09:08:37.744Z,3.22
2022-08-03T09:11:21.672Z,3.38
2022-08-03T09:14:36.857Z,3.42
2022-08-03T09:17:19.518Z,3.47
2022-08-03T09:20:24.033Z,3.53
2022-08-03T09:23:26.248Z,3.17
2022-08-03T09:26:05.382Z,4.15
2022-08-03T09:28:59.917Z,2.83
2022-08-03T09:31:45.584Z,2.83
2022-08-03T09:34:29.035Z,3.15
2022-08-03T09:37:05.615Z,3.00
2022-08-03T09:39:46.137Z,3.58
2022-08-03T09:42:26.447Z,3.05
2022-08-03T09:45:28.206Z,2.30
2022-08-03T09:48:34.866Z,2.83
2022-08-03T09:51:32.843Z,3.13
2022-08-03T09:54:20.580Z,2.95
2022-08-03T09:57:03.007Z,3.33
2022-08-03T09:59:45.195Z,2.95
2022-08-03T10:02:28.832Z,2.70
2022-08-03T10:05:17.512Z,3.00
2022-08-03T10:07:59.888Z,3.45
2022-08-03T10:10:46.073Z,3.05
2022-08-03T10:13:31.972Z,3.10
2022-08-03T10:16:23.006Z,2.90
2022-08-03T10:19:10.069Z,3.63
2022-08-03T10:22:27.497Z,3.72
2022-08-03T10:25:13.706Z,3.30
2022-08-03T10:27:57.273Z,2.90
2022-08-03T10:30:48.255Z,3.35
2022-08-03T10:33:49.538Z,3.28
2022-08-03T10:36:42.217Z,3.20
2022-08-03T10:39:22.654Z,3.55
2022-08-03T10:42:03.776Z,3.40
2022-08-03T10:44:53.945Z,3.17
2022-08-03T10:47:30.792Z,3.20
2022-08-03T10:50:06.032Z,3.28
2022-08-03T10:52:56.603Z,3.22
2022-08-03T10:55:59.171Z,3.17
2022-08-03T10:59:10.569Z,2.70
2022-08-03T11:02:10.914Z,2.72
2022-08-03T11:04:53.889Z,3.08
2022-08-03T11:07:32.380Z,2.75
2022-08-03T11:10:35.483Z,2.60
2022-08-03T11:13:27.318Z,3.08
2022-08-03T11:16:03.938Z,3.08
2022-08-03T11:18:59.151Z,3.20
2022-08-03T11:21:55.748Z,2.85
2022-08-03T11:24:41.172Z,2.80
2022-08-03T11:27:35.002Z,2.95
2022-08-03T11:30:30.057Z,2.60
2022-08-03T11:33:06.019Z,3.35
2022-08-03T11:36:10.587Z,3.30
2022-08-03T11:39:23.865Z,2.65
2022-08-03T11:42:30.518Z,2.17
2022-08-03T11:45:20.450Z,2.35
2022-08-03T11:48:04.026Z,2.47
2022-08-03T11:50:58.175Z,2.63
2022-08-03T11:53:34.308Z,2.65
2022-08-03T11:56:24.830Z,2.90
2022-08-03T11:59:20.507Z,2.50
2022-08-03T12:01:54.834Z,3.00
2022-08-03T12:04:50.563Z,2.42
2022-08-03T12:08:03.905Z,3.15
2022-08-03T12:10:40.625Z,2.92
2022-08-03T12:14:26.937Z,2.85
2022-08-03T12:16:39.572Z,2.80
2022-08-03T12:19:21.647Z,2.50
2022-08-03T12:22:04.829Z,2.30
2022-08-03T12:27:53.642Z,2.60
2022-08-03T12:30:41.539Z,2.38
2022-08-03T12:34:04.925Z,2.63
2022-08-03T12:37:22.221Z,3.15
2022-08-03T12:40:09.595Z,2.80
2022-08-03T12:42:44.908Z,2.90
2022-08-03T12:45:48.613Z,2.35
2022-08-03T12:48:27.886Z,2.25
2022-08-03T12:51:32.226Z,2.78
2022-08-03T12:54:13.150Z,2.40
2022-08-03T12:57:01.455Z,2.60
2022-08-03T12:59:56.427Z,2.47
2022-08-03T13:02:32.088Z,2.15
2022-08-03T13:05:17.909Z,2.10
2022-08-03T13:07:58.474Z,2.33
2022-08-03T13:10:47.481Z,2.00
2022-08-03T13:13:47.293Z,2.40
2022-08-03T13:16:22.483Z,2.00
2022-08-03T13:19:18.103Z,2.30
2022-08-03T13:22:08.638Z,2.42
2022-08-03T13:24:44.997Z,2.38
2022-08-03T13:31:01.069Z,2.92
2022-08-03T13:33:37.405Z,1.90
2022-08-03T13:36:22.300Z,2.35
2022-08-03T13:39:05.852Z,2.60
2022-08-03T13:41:53.775Z,2.97
2022-08-03T13:44:29.725Z,2.72
2022-08-03T13:47:15.122Z,2.20
2022-08-03T13:50:00.026Z,2.78
2022-08-03T13:52:43.066Z,2.38
2022-08-03T13:55:16.715Z,2.53
2022-08-03T13:58:07.298Z,2.40
2022-08-03T14:00:47.227Z,2.05
2022-08-03T14:03:33.846Z,2.22
2022-08-03T14:06:09.698Z,2.22
2022-08-03T14:08:49.330Z,2.20
2022-08-03T14:11:23.090Z,1.85
2022-08-03T14:14:46.202Z,2.05
2022-08-03T14:17:49.592Z,2.38
2022-08-03T14:20:38.835Z,2.28
2022-08-03T14:23:34.066Z,2.50
2022-08-03T14:26:08.494Z,2.58
2022-08-03T14:28:54.692Z,1.90
2022-08-03T14:32:10.388Z,1.83
2022-08-03T14:34:36.392Z,2.13
2022-08-03T14:37:08.380Z,2.40
2022-08-03T14:42:33.885Z,2.17
2022-08-03T14:45:19.787Z,1.95
2022-08-03T14:50:31.973Z,1.50
2022-08-03T14:51:02.819Z,2.10
2022-08-03T14:53:55.535Z,2.13
2022-08-03T14:56:23.827Z,2.17
2022-08-03T14:59:09.600Z,1.25
2022-08-03T15:02:03.368Z,2.08
2022-08-03T15:04:46.682Z,2.47
2022-08-03T15:07:23.665Z,1.30
2022-08-03T15:10:27.096Z,1.60
2022-08-03T15:13:18.679Z,1.83
2022-08-03T15:16:08.082Z,1.90
2022-08-03T15:18:58.075Z,1.90
2022-08-03T15:21:46.637Z,1.80
2022-08-03T15:24:29.199Z,2.03
2022-08-03T15:27:10.173Z,2.45
2022-08-03T15:30:04.779Z,1.58
2022-08-03T15:32:59.629Z,2.05
2022-08-03T15:35:34.333Z,2.15
2022-08-03T15:38:12.038Z,2.30
2022-08-03T15:40:51.105Z,1.70
2022-08-03T15:43:34.315Z,1.90
2022-08-03T15:46:29.241Z,2.33
2022-08-03T15:49:00.794Z,1.95
2022-08-03T15:51:42.127Z,2.10
2022-08-03T15:54:34.843Z,1.60
2022-08-03T15:57:10.341Z,2.15
2022-08-03T15:59:56.800Z,1.90
2022-08-03T16:02:44.370Z,2.30
2022-08-03T16:05:40.453Z,1.90
2022-08-03T16:08:29.717Z,2.00
2022-08-03T16:11:14.558Z,1.85
2022-08-03T16:14:12.007Z,1.85
2022-08-03T16:17:01.307Z,1.48
2022-08-03T16:19:35.690Z,1.73
2022-08-03T16:22:11.743Z,2.13
2022-08-03T16:24:45.074Z,1.83
2022-08-03T16:31:00.914Z,1.58
2022-08-03T16:33:44.940Z,1.48
2022-08-03T16:36:24.128Z,2.17
2022-08-03T16:39:08.000Z,2.17
2022-08-03T16:42:00.910Z,1.90
2022-08-03T16:44:36.876Z,2.38
2022-08-03T16:47:22.304Z,1.63
2022-08-03T16:49:56.295Z,1.90
2022-08-03T16:52:42.159Z,1.77
2022-08-03T16:55:48.461Z,1.85
2022-08-03T16:58:44.891Z,1.30
2022-08-03T17:01:21.913Z,1.42
2022-08-03T17:04:06.120Z,1.63
2022-08-03T17:06:48.014Z,1.55
2022-08-03T17:09:38.347Z,1.80
2022-08-03T17:12:12.384Z,1.88
2022-08-03T17:17:53.731Z,1.70
2022-08-03T17:20:37.210Z,1.63
2022-08-03T17:23:34.990Z,1.60
2022-08-03T17:26:22.347Z,1.77
2022-08-03T17:29:00.618Z,2.25
2022-08-03T17:31:54.750Z,2.00
2022-08-03T17:34:29.922Z,1.40
2022-08-03T17:37:50.459Z,1.60
2022-08-03T17:40:17.995Z,1.77
2022-08-03T17:43:00.337Z,2.10
2022-08-03T17:45:52.322Z,1.95
2022-08-03T17:48:25.387Z,1.90
2022-08-03T17:51:06.913Z,1.80
2022-08-03T18:00:42.762Z,2.10
2022-08-03T18:03:57.773Z,1.67
2022-08-03T18:06:56.274Z,1.40
2022-08-03T18:10:03.653Z,1.85
2022-08-03T18:12:54.722Z,2.47
2022-08-03T18:19:09.709Z,2.37
2022-08-03T18:22:11.328Z,1.77
2022-08-03T18:25:07.724Z,1.42
2022-08-03T18:27:49.727Z,2.15
2022-08-03T18:30:30.780Z,2.03
2022-08-03T18:34:17.195Z,1.90
2022-08-03T18:36:30.560Z,1.88
2022-08-03T18:39:27.805Z,2.22
2022-08-03T18:42:10.057Z,2.00
2022-08-03T18:45:14.975Z,2.22
2022-08-03T18:48:39.314Z,2.30
2022-08-03T18:51:43.407Z,2.13
2022-08-03T18:54:46.701Z,2.55
2022-08-03T18:58:17.873Z,2.10
2022-08-03T19:01:58.937Z,2.17
2022-08-03T19:05:04.831Z,2.50
2022-08-03T19:07:58.319Z,2.60
2022-08-03T19:10:57.816Z,2.45
2022-08-03T19:17:21.107Z,2.33
2022-08-03T19:20:07.781Z,2.17
2022-08-03T19:23:08.629Z,2.22
2022-08-03T19:26:29.924Z,2.20
2022-08-03T19:29:58.015Z,2.30
2022-08-03T19:32:42.217Z,2.30
2022-08-03T19:35:54.990Z,2.55
2022-08-03T19:41:59.306Z,2.47
2022-08-03T19:44:52.222Z,2.50
2022-08-03T19:47:48.211Z,2.65
2022-08-03T19:50:24.236Z,3.05
2022-08-03T19:53:12.736Z,3.00
2022-08-03T19:55:52.496Z,5.03
2022-08-03T19:58:42.324Z,2.75
2022-08-03T20:01:19.269Z,2.17
2022-08-03T20:04:00.931Z,2.10
2022-08-03T20:06:40.469Z,2.25
2022-08-03T20:09:31.478Z,2.00
2022-08-03T20:12:28.248Z,2.40
2022-08-03T20:15:33.952Z,2.38
2022-08-03T20:18:23.933Z,2.47
2022-08-03T20:20:54.951Z,2.50
2022-08-03T20:23:38.634Z,1.87
2022-08-03T20:26:51.702Z,2.25
2022-08-03T20:29:42.669Z,1.95
2022-08-03T20:36:02.721Z,2.78
2022-08-03T20:38:43.872Z,2.50
2022-08-03T20:41:20.017Z,2.47
2022-08-03T20:44:05.870Z,2.20
2022-08-03T20:46:53.341Z,2.50
2022-08-03T20:49:46.634Z,2.13
2022-08-03T20:52:19.317Z,2.35
2022-08-03T20:55:12.951Z,2.78
2022-08-03T20:57:53.895Z,2.45
2022-08-03T21:00:27.518Z,1.95
2022-08-03T21:03:12.541Z,2.30
2022-08-03T21:05:58.085Z,2.47
2022-08-03T21:08:50.802Z,2.80
2022-08-03T21:12:55.925Z,1.88
2022-08-03T21:13:08.414Z,2.20
2022-08-03T21:15:03.381Z,2.60
2022-08-03T21:18:11.242Z,2.70
2022-08-03T21:21:17.365Z,2.80
2022-08-03T21:24:23.639Z,2.75
2022-08-03T21:27:30.847Z,2.88
2022-08-03T21:30:26.159Z,2.55
2022-08-03T21:33:34.964Z,3.20
2022-08-03T21:36:15.037Z,2.97
2022-08-03T21:38:57.660Z,3.40
2022-08-03T21:41:33.814Z,2.83
2022-08-03T21:44:09.442Z,2.58
2022-08-03T21:46:51.917Z,3.15
2022-08-03T21:50:04.478Z,3.10
2022-08-03T21:52:42.432Z,2.95
2022-08-03T21:55:20.935Z,2.67
2022-08-03T21:58:09.178Z,2.90
2022-08-03T22:00:44.688Z,3.00
2022-08-03T22:03:52.868Z,2.92
2022-08-03T22:06:57.986Z,3.53
2022-08-03T22:13:19.470Z,3.28
2022-08-03T22:17:00.743Z,3.05
2022-08-03T22:19:54.134Z,3.25
2022-08-03T22:22:55.131Z,3.55
2022-08-03T22:26:18.627Z,2.95
2022-08-03T22:30:07.485Z,2.75
2022-08-03T22:33:14.705Z,3.38
2022-08-03T22:36:04.088Z,3.00
2022-08-03T22:38:54.309Z,2.47
2022-08-03T22:41:58.997Z,3.00
2022-08-03T22:46:07.543Z,3.28
2022-08-03T22:49:06.840Z,3.17
2022-08-03T22:55:37.645Z,3.30
2022-08-03T22:58:30.540Z,3.28
2022-08-03T23:01:23.008Z,3.05
2022-08-03T23:07:36.148Z,3.72
2022-08-03T23:10:23.823Z,3.92
2022-08-03T23:13:15.210Z,3.08
2022-08-03T23:16:07.227Z,3.55
2022-08-03T23:18:47.515Z,2.92
2022-08-03T23:21:53.946Z,2.85
2022-08-03T23:24:29.370Z,3.20
2022-08-03T23:27:14.016Z,3.00
2022-08-03T23:30:09.117Z,3.38
2022-08-03T23:32:54.709Z,2.85
2022-08-03T23:36:29.005Z,3.10
2022-08-03T23:38:57.878Z,2.97
2022-08-03T23:41:36.003Z,2.65
2022-08-03T23:44:13.580Z,3.08
2022-08-03T23:46:50.536Z,2.45
2022-08-03T23:49:23.636Z,2.90
2022-08-03T23:52:25.324Z,2.60
2022-08-03T23:55:08.878Z,2.70
2022-08-03T23:57:52.123Z,2.78
